Time;durP1;ratioP1;P1;durP2;ratioP2;P2;SDS_P1;SDS_P2;PMS_P1;PMS_P2;Temp;Humidity;BMP_temperature;BMP_pressure;BME280_temperature;BME280_humidity;BME280_pressure;Samples;Min_cycle;Max_cycle;Signal;HPM_P1;HPM_P2
2023/11/21 00:01:52;;;;;;;;;;;;;;;26.24;34.00;100909.63;4199426;28;20308;-63
2023/11/21 00:03:55;;;;;;;;;;;;;;;26.23;33.98;100909.78;4199323;28;19930;-62
2023/11/21 00:05:57;;;;;;;;;;;;;;;26.24;33.92;100908.78;4199169;28;19930;-63
2023/11/21 00:07:59;;;;;;;;;;;;;;;26.23;34.43;100913.31;4199436;28;19920;-62
2023/11/21 00:10:00;;;;;;;;;;;;;;;26.22;34.15;100906.25;4199492;28;19921;-62
2023/11/21 00:12:03;;;;;;;;;;;;;;;26.21;34.10;100906.38;4199063;28;19924;-63
2023/11/21 00:14:04;;;;;;;;;;;;;;;26.11;34.06;100898.34;4198948;28;20025;-62
2023/11/21 00:16:07;;;;;;;;;;;;;;;26.20;34.23;100910.06;4198029;28;19996;-62
2023/11/21 00:18:09;;;;;;;;;;;;;;;26.18;34.31;100904.84;4199251;28;19966;-62
2023/11/21 00:20:13;;;;;;;;;;;;;;;26.16;34.05;100896.03;4198917;28;20470;-63
2023/11/21 00:22:15;;;;;;;;;;;;;;;26.22;34.24;100902.69;4198962;28;19921;-62
2023/11/21 00:24:17;;;;;;;;;;;;;;;26.22;33.98;100902.69;4197858;28;20397;-62
2023/11/21 00:26:19;;;;;;;;;;;;;;;26.23;34.32;100905.22;4199202;28;20312;-63
2023/11/21 00:28:20;;;;;;;;;;;;;;;26.23;34.01;100907.06;4198787;28;19927;-62
2023/11/21 00:30:22;;;;;;;;;;;;;;;26.22;34.00;100911.63;4198871;28;19927;-63
2023/11/21 00:32:23;;;;;;;;;;;;;;;26.20;34.15;100905.53;4198867;28;19927;-62
2023/11/21 00:34:25;;;;;;;;;;;;;;;26.19;34.34;100911.94;4199094;28;20303;-61
2023/11/21 00:36:27;;;;;;;;;;;;;;;26.18;34.11;100907.53;4198957;28;20010;-62
2023/11/21 00:38:29;;;;;;;;;;;;;;;26.15;34.38;100900.59;4198836;28;19936;-63
2023/11/21 00:40:31;;;;;;;;;;;;;;;26.14;34.33;100900.75;4198900;28;19928;-63
2023/11/21 00:42:33;;;;;;;;;;;;;;;26.15;34.22;100899.75;4198906;28;19920;-62
2023/11/21 00:44:37;;;;;;;;;;;;;;;26.17;34.09;100905.00;4199131;28;19931;-64
2023/11/21 00:46:39;;;;;;;;;;;;;;;26.18;34.20;100902.13;4198803;28;19921;-62
2023/11/21 00:48:41;;;;;;;;;;;;;;;26.20;34.14;100901.97;4198730;28;20379;-63
2023/11/21 00:50:42;;;;;;;;;;;;;;;26.20;34.28;100901.97;4198486;28;19931;-63
2023/11/21 00:52:44;;;;;;;;;;;;;;;26.21;34.12;100900.97;4198899;28;19920;-62
2023/11/21 00:54:46;;;;;;;;;;;;;;;26.19;34.04;100898.44;4198628;28;19924;-63
2023/11/21 00:56:48;;;;;;;;;;;;;;;26.19;34.11;100898.44;4198720;28;19920;-63
2023/11/21 00:58:52;;;;;;;;;;;;;;;26.18;34.16;100904.00;4197503;28;20026;-63
2023/11/21 01:00:53;;;;;;;;;;;;;;;26.17;34.09;100902.31;4198590;28;19963;-63
2023/11/21 01:02:55;;;;;;;;;;;;;;;26.15;34.15;100906.00;4198656;28;19947;-62
2023/11/21 01:04:57;;;;;;;;;;;;;;;26.15;34.17;100907.84;4198436;28;20019;-62
2023/11/21 01:06:58;;;;;;;;;;;;;;;26.15;34.13;100907.84;4198688;28;19920;-63
2023/11/21 01:09:00;;;;;;;;;;;;;;;26.17;34.11;100905.00;4198497;28;20447;-63
2023/11/21 01:11:02;;;;;;;;;;;;;;;26.18;34.08;100918.31;4198384;28;19935;-62
2023/11/21 01:13:07;;;;;;;;;;;;;;;26.19;34.07;100914.63;4196863;28;20019;-62
2023/11/21 01:15:08;;;;;;;;;;;;;;;26.20;34.33;100927.09;4198213;28;19920;-61
2023/11/21 01:17:10;;;;;;;;;;;;;;;26.21;34.32;100919.84;4198494;28;19920;-61
2023/11/21 01:19:12;;;;;;;;;;;;;;;26.19;34.27;100916.47;4198304;28;20041;-62
2023/11/21 01:21:14;;;;;;;;;;;;;;;26.18;34.14;100917.47;4198461;28;19924;-61
2023/11/21 01:23:16;;;;;;;;;;;;;;;26.17;34.09;100915.78;4198448;28;19925;-61
2023/11/21 01:25:17;;;;;;;;;;;;;;;26.15;34.15;100918.63;4198312;28;19999;-62
2023/11/21 01:27:19;;;;;;;;;;;;;;;26.14;34.06;100922.31;4197945;28;19925;-61
2023/11/21 01:29:20;;;;;;;;;;;;;;;26.12;34.22;100919.75;4198339;28;19920;-60
2023/11/21 01:31:22;;;;;;;;;;;;;;;26.13;34.04;100923.31;4198271;28;19956;-60
2023/11/21 01:33:24;;;;;;;;;;;;;;;26.12;34.08;100925.16;4198048;28;20415;-61
2023/11/21 01:35:26;;;;;;;;;;;;;;;26.14;34.12;100928.56;4197812;28;19920;-62
2023/11/21 01:37:28;;;;;;;;;;;;;;;26.16;34.00;100931.09;4197959;28;19920;-62
2023/11/21 01:39:30;;;;;;;;;;;;;;;26.17;34.03;100938.19;4197784;28;19920;-62
2023/11/21 01:41:31;;;;;;;;;;;;;;;26.17;33.91;100937.34;4196239;28;20019;-62
2023/11/21 01:43:33;;;;;;;;;;;;;;;26.15;33.98;100932.94;4198043;28;19920;-62
2023/11/21 01:45:35;;;;;;;;;;;;;;;26.15;34.32;100932.13;4197752;28;19920;-63
2023/11/21 01:47:37;;;;;;;;;;;;;;;26.13;34.04;100936.81;4197792;28;20399;-62
2023/11/21 01:49:39;;;;;;;;;;;;;;;26.13;33.98;100939.50;4197765;28;20325;-63
2023/11/21 01:51:43;;;;;;;;;;;;;;;26.13;34.01;100945.72;4197537;28;19924;-63
2023/11/21 01:53:46;;;;;;;;;;;;;;;26.11;34.01;100945.03;4197944;28;19920;-63
2023/11/21 01:55:49;;;;;;;;;;;;;;;26.11;34.32;100944.19;4197523;28;19924;-62
2023/11/21 01:57:50;;;;;;;;;;;;;;;26.12;34.11;100945.88;4197965;28;19924;-62
2023/11/21 01:59:53;;;;;;;;;;;;;;;26.13;34.29;100942.19;4197628;28;19920;-62
2023/11/21 02:01:56;;;;;;;;;;;;;;;26.14;34.27;100943.88;4197656;28;19952;-62
2023/11/21 02:03:57;;;;;;;;;;;;;;;26.15;34.21;100945.59;4197593;28;19956;-63
2023/11/21 02:05:59;;;;;;;;;;;;;;;26.17;34.04;100945.44;4197743;28;20310;-63
2023/11/21 02:08:02;;;;;;;;;;;;;;;26.15;33.97;100950.97;4197755;28;20249;-62
2023/11/21 02:10:04;;;;;;;;;;;;;;;26.15;34.17;100946.44;4197465;28;20154;-63
2023/11/21 02:12:07;;;;;;;;;;;;;;;26.14;33.95;100947.41;4197494;28;20022;-62
2023/11/21 02:14:09;;;;;;;;;;;;;;;26.13;34.16;100951.13;4197457;28;19920;-62
2023/11/21 02:16:12;;;;;;;;;;;;;;;26.12;34.26;100948.56;4197669;28;19924;-62
2023/11/21 02:18:15;;;;;;;;;;;;;;;26.12;34.24;100948.56;4197528;28;20306;-63
2023/11/21 02:20:17;;;;;;;;;;;;;;;26.12;33.98;100945.88;4197145;28;19924;-62
2023/11/21 02:22:19;;;;;;;;;;;;;;;26.13;34.00;100944.88;4197236;28;19966;-62
2023/11/21 02:24:22;;;;;;;;;;;;;;;26.14;33.99;100946.59;4197112;28;19921;-63
2023/11/21 02:26:25;;;;;;;;;;;;;;;26.17;34.04;100956.22;4196992;28;19924;-62
2023/11/21 02:28:26;;;;;;;;;;;;;;;26.17;33.97;100950.81;4197341;28;19942;-62
2023/11/21 02:30:28;;;;;;;;;;;;;;;26.18;34.14;100949.81;4197275;28;19974;-63
2023/11/21 02:32:31;;;;;;;;;;;;;;;26.17;33.91;100957.06;4197342;28;19947;-62
2023/11/21 02:34:33;;;;;;;;;;;;;;;26.17;33.96;100961.59;4197213;28;20331;-62
2023/11/21 02:36:34;;;;;;;;;;;;;;;26.15;33.87;100954.50;4197294;28;19973;-62
2023/11/21 02:38:36;;;;;;;;;;;;;;;26.14;33.81;100958.19;4196729;28;19920;-62
2023/11/21 02:40:37;;;;;;;;;;;;;;;26.14;33.93;100962.75;4195934;28;19920;-62
2023/11/21 02:42:40;;;;;;;;;;;;;;;26.13;34.37;100963.75;4197071;28;19927;-62
2023/11/21 02:44:41;;;;;;;;;;;;;;;26.13;34.25;100958.38;4197004;28;20304;-62
2023/11/21 02:46:43;;;;;;;;;;;;;;;26.14;33.93;100958.19;4196455;28;20011;-61
2023/11/21 02:48:45;;;;;;;;;;;;;;;26.16;33.92;100958.03;4197308;28;20319;-60
2023/11/21 02:50:47;;;;;;;;;;;;;;;26.18;34.05;100960.63;4196891;28;19972;-62
2023/11/21 02:52:48;;;;;;;;;;;;;;;26.19;33.90;100960.44;4197237;28;19920;-62
2023/11/21 02:54:51;;;;;;;;;;;;;;;26.19;33.84;100951.53;4197201;28;19920;-61
2023/11/21 02:56:52;;;;;;;;;;;;;;;26.19;33.91;100957.75;4197091;28;20315;-62
2023/11/21 02:58:57;;;;;;;;;;;;;;;26.18;33.78;100961.44;4197153;28;19960;-62
2023/11/21 03:00:58;;;;;;;;;;;;;;;26.17;34.21;100958.91;4196955;28;19926;-62
2023/11/21 03:03:00;;;;;;;;;;;;;;;26.14;34.03;100955.50;4197092;28;19928;-62
2023/11/21 03:05:02;;;;;;;;;;;;;;;26.15;34.24;100964.47;4196933;28;19973;-62
2023/11/21 03:07:06;;;;;;;;;;;;;;;26.13;33.89;100961.91;4196816;28;19920;-62
2023/11/21 03:09:07;;;;;;;;;;;;;;;26.13;33.88;100956.50;4196901;28;20441;-61
2023/11/21 03:11:09;;;;;;;;;;;;;;;26.15;34.09;100953.69;4197009;28;20011;-61
2023/11/21 03:13:11;;;;;;;;;;;;;;;26.15;33.88;100954.50;4196990;28;19960;-62
2023/11/21 03:15:12;;;;;;;;;;;;;;;26.18;33.87;100949.81;4196947;28;19921;-61
2023/11/21 03:17:14;;;;;;;;;;;;;;;26.18;34.14;100947.97;4197015;28;19920;-62
2023/11/21 03:19:16;;;;;;;;;;;;;;;26.18;33.74;100958.75;4196927;28;19927;-61
2023/11/21 03:21:19;;;;;;;;;;;;;;;26.19;33.77;100960.44;4196897;28;19920;-62
2023/11/21 03:23:20;;;;;;;;;;;;;;;26.20;33.71;100955.91;4196539;28;19927;-62
2023/11/21 03:25:23;;;;;;;;;;;;;;;26.19;34.09;100965.00;4196945;28;19963;-62
2023/11/21 03:27:25;;;;;;;;;;;;;;;26.16;33.98;100963.44;4196879;28;19927;-61
2023/11/21 03:29:26;;;;;;;;;;;;;;;26.15;33.87;100956.38;4195739;28;19931;-61
2023/11/21 03:31:28;;;;;;;;;;;;;;;26.14;34.03;100962.75;4196767;28;19926;-61
2023/11/21 03:33:30;;;;;;;;;;;;;;;26.13;33.91;100967.28;4196822;28;19920;-61
2023/11/21 03:35:32;;;;;;;;;;;;;;;26.14;33.83;100969.00;4195553;28;19920;-61
2023/11/21 03:37:34;;;;;;;;;;;;;;;26.15;33.80;100978.78;4196426;28;20383;-61
2023/11/21 03:39:35;;;;;;;;;;;;;;;26.18;34.10;100974.09;4196793;28;19927;-62
2023/11/21 03:41:37;;;;;;;;;;;;;;;26.19;34.07;100979.31;4196543;28;19924;-62
2023/11/21 03:43:39;;;;;;;;;;;;;;;26.19;33.81;100965.84;4196703;28;19973;-62
2023/11/21 03:45:40;;;;;;;;;;;;;;;26.19;33.84;100963.16;4196828;28;19947;-62
2023/11/21 03:47:42;;;;;;;;;;;;;;;26.22;33.78;100972.78;4196756;28;19960;-62
2023/11/21 03:49:44;;;;;;;;;;;;;;;26.18;33.98;100974.94;4196842;28;19927;-62
2023/11/21 03:51:46;;;;;;;;;;;;;;;26.17;34.06;100972.38;4196041;28;19974;-62
2023/11/21 03:53:47;;;;;;;;;;;;;;;26.15;34.10;100976.06;4196641;28;20050;-62
2023/11/21 03:55:49;;;;;;;;;;;;;;;26.14;33.80;100977.06;4195462;28;19948;-62
2023/11/21 03:57:52;;;;;;;;;;;;;;;26.14;33.94;100990.56;4196990;28;19920;-62
2023/11/21 03:59:53;;;;;;;;;;;;;;;26.13;33.93;100983.47;4199907;28;19928;-61
2023/11/21 04:01:56;;;;;;;;;;;;;;;26.16;34.11;100982.31;4199661;28;19971;-61
2023/11/21 04:03:58;;;;;;;;;;;;;;;26.18;33.73;100976.78;4199756;28;20001;-61
2023/11/21 04:06:00;;;;;;;;;;;;;;;26.19;33.71;100983.88;4199302;28;20062;-61
2023/11/21 04:08:02;;;;;;;;;;;;;;;26.20;33.97;100988.25;4199351;28;19920;-61
2023/11/21 04:10:07;;;;;;;;;;;;;;;26.21;33.66;100988.13;4199650;28;19920;-61
2023/11/21 04:12:09;;;;;;;;;;;;;;;26.19;33.78;100990.09;4199651;28;20345;-62
2023/11/21 04:14:11;;;;;;;;;;;;;;;26.18;33.73;100995.66;4199241;28;19926;-61
2023/11/21 04:16:12;;;;;;;;;;;;;;;26.18;34.14;100998.34;4198236;28;19920;-61
2023/11/21 04:18:14;;;;;;;;;;;;;;;26.17;34.20;101002.88;4199281;28;20391;-61
2023/11/21 04:20:15;;;;;;;;;;;;;;;26.16;33.86;101009.25;4198794;28;19920;-61
2023/11/21 04:22:17;;;;;;;;;;;;;;;26.14;33.99;101006.72;4199453;28;20015;-61
2023/11/21 04:24:19;;;;;;;;;;;;;;;26.15;33.98;101012.97;4199312;28;20395;-61
2023/11/21 04:26:20;;;;;;;;;;;;;;;26.16;33.74;101009.25;4199174;28;19920;-61
2023/11/21 04:28:22;;;;;;;;;;;;;;;26.19;33.81;101013.53;4199109;28;19962;-62
2023/11/21 04:30:23;;;;;;;;;;;;;;;26.19;34.14;101019.75;4199355;28;19920;-62
2023/11/21 04:32:25;;;;;;;;;;;;;;;26.21;33.84;101023.16;4199274;28;20345;-63
2023/11/21 04:34:26;;;;;;;;;;;;;;;26.21;33.94;101020.47;4198908;28;19943;-63
2023/11/21 04:36:30;;;;;;;;;;;;;;;26.20;33.74;101023.28;4199140;28;19920;-62
2023/11/21 04:38:32;;;;;;;;;;;;;;;26.18;33.76;101015.38;4199173;28;20024;-62
2023/11/21 04:40:34;;;;;;;;;;;;;;;26.18;33.76;101015.38;4198939;28;19920;-62
2023/11/21 04:42:36;;;;;;;;;;;;;;;26.18;33.96;101028.00;4199089;28;20375;-63
2023/11/21 04:44:40;;;;;;;;;;;;;;;26.15;33.73;101021.91;4198886;28;19931;-62
2023/11/21 04:46:42;;;;;;;;;;;;;;;26.15;33.91;101026.47;4199018;28;19921;-62
2023/11/21 04:48:44;;;;;;;;;;;;;;;26.16;33.77;101025.44;4198749;28;19924;-62
2023/11/21 04:50:45;;;;;;;;;;;;;;;26.17;33.76;101020.91;4198257;28;19920;-62
2023/11/21 04:52:47;;;;;;;;;;;;;;;26.19;34.10;101019.75;4198776;28;19920;-61
2023/11/21 04:54:48;;;;;;;;;;;;;;;26.19;34.04;101017.06;4198709;28;19920;-62
2023/11/21 04:56:50;;;;;;;;;;;;;;;26.19;33.68;101014.38;4197451;28;19999;-62
2023/11/21 04:58:52;;;;;;;;;;;;;;;26.19;33.81;101019.75;4198800;28;19931;-62
2023/11/21 05:00:57;;;;;;;;;;;;;;;26.18;33.96;101023.44;4198814;28;20307;-62
2023/11/21 05:03:01;;;;;;;;;;;;;;;26.20;33.98;101026.84;4198633;28;19927;-62
2023/11/21 05:05:05;;;;;;;;;;;;;;;26.18;34.04;101026.16;4198551;28;19989;-62
2023/11/21 05:07:07;;;;;;;;;;;;;;;26.17;33.96;101023.59;4198601;28;19977;-62
2023/11/21 05:09:12;;;;;;;;;;;;;;;26.16;34.11;101022.75;4198759;28;19920;-62
2023/11/21 05:11:22;;;;;;;;;;;;;;;26.14;33.97;101022.06;4198176;28;19963;-62
2023/11/21 05:13:27;;;;;;;;;;;;;;;26.14;34.22;101030.16;4198687;28;20007;-62
2023/11/21 05:15:29;;;;;;;;;;;;;;;26.14;34.15;101032.84;4198712;28;19973;-62
2023/11/21 05:17:31;;;;;;;;;;;;;;;26.15;33.83;101032.69;4198625;28;19927;-62
2023/11/21 05:19:32;;;;;;;;;;;;;;;26.16;34.06;101030.84;4198256;28;19974;-62
2023/11/21 05:21:35;;;;;;;;;;;;;;;26.18;34.02;101041.50;4198555;28;19921;-62
2023/11/21 05:23:37;;;;;;;;;;;;;;;26.17;33.97;101039.78;4198392;28;19936;-62
2023/11/21 05:25:38;;;;;;;;;;;;;;;26.16;33.82;101044.31;4198103;28;19927;-62
2023/11/21 05:27:41;;;;;;;;;;;;;;;26.17;33.88;101051.41;4198248;28;19925;-62
2023/11/21 05:29:43;;;;;;;;;;;;;;;26.15;34.13;101045.34;4198300;28;20290;-61
2023/11/21 05:31:44;;;;;;;;;;;;;;;26.17;34.16;101047.88;4198353;28;19920;-62
2023/11/21 05:33:46;;;;;;;;;;;;;;;26.15;33.77;101045.34;4197867;28;19928;-61
2023/11/21 05:35:48;;;;;;;;;;;;;;;26.15;33.88;101056.94;4198094;28;19928;-61
2023/11/21 05:37:50;;;;;;;;;;;;;;;26.15;33.92;101053.41;4198013;28;19999;-61
2023/11/21 05:39:51;;;;;;;;;;;;;;;26.16;34.08;101065.88;4198256;28;19920;-61
2023/11/21 05:41:53;;;;;;;;;;;;;;;26.17;34.03;101056.78;4198055;28;19975;-61
2023/11/21 05:43:55;;;;;;;;;;;;;;;26.18;34.07;101066.59;4198037;28;19958;-64
2023/11/21 05:45:56;;;;;;;;;;;;;;;26.18;34.11;101063.06;4198068;28;19920;-61
2023/11/21 05:47:58;;;;;;;;;;;;;;;26.19;33.84;101065.59;4197475;28;19931;-62
2023/11/21 05:50:00;;;;;;;;;;;;;;;26.19;33.86;101068.28;4197854;28;19946;-61
2023/11/21 05:52:01;;;;;;;;;;;;;;;26.18;33.73;101074.69;4196295;28;19920;-62
2023/11/21 05:54:04;;;;;;;;;;;;;;;26.18;33.96;101068.44;4197818;28;19923;-61
2023/11/21 05:56:05;;;;;;;;;;;;;;;26.17;33.92;101066.75;4197825;28;19924;-63
2023/11/21 05:58:07;;;;;;;;;;;;;;;26.15;34.16;101070.44;4197940;28;19966;-63
2023/11/21 06:00:11;;;;;;;;;;;;;;;26.16;33.92;101065.88;4197710;28;20383;-62
2023/11/21 06:02:13;;;;;;;;;;;;;;;26.17;34.27;101070.28;4197169;28;19920;-63
2023/11/21 06:04:14;;;;;;;;;;;;;;;26.18;33.93;101071.13;4197776;28;19927;-63
2023/11/21 06:06:16;;;;;;;;;;;;;;;26.19;33.91;101072.84;4197601;28;20015;-63
2023/11/21 06:08:18;;;;;;;;;;;;;;;26.19;34.32;101070.97;4197812;28;19964;-63
2023/11/21 06:10:20;;;;;;;;;;;;;;;26.21;33.90;101073.53;4197788;28;20015;-63
2023/11/21 06:12:22;;;;;;;;;;;;;;;26.22;34.09;101077.91;4197592;28;19942;-63
2023/11/21 06:14:24;;;;;;;;;;;;;;;26.22;34.10;101081.50;4197503;28;19924;-63
2023/11/21 06:16:25;;;;;;;;;;;;;;;26.21;33.96;101090.56;4197224;28;19920;-64
2023/11/21 06:18:32;;;;;;;;;;;;;;;26.20;34.03;101082.59;4197547;28;19924;-63
2023/11/21 06:20:33;;;;;;;;;;;;;;;26.19;34.28;101089.03;4197501;28;20015;-63
2023/11/21 06:22:36;;;;;;;;;;;;;;;26.18;34.02;101090.00;4196796;28;19921;-63
2023/11/21 06:24:38;;;;;;;;;;;;;;;26.15;34.11;101089.31;4197373;28;19932;-63
2023/11/21 06:26:39;;;;;;;;;;;;;;;26.16;34.23;101090.13;4197296;28;19920;-63
2023/11/21 06:28:41;;;;;;;;;;;;;;;26.19;34.05;101094.41;4197416;28;19921;-63
2023/11/21 06:30:48;;;;;;;;;;;;;;;26.20;33.93;101098.78;4197470;28;20473;-63
2023/11/21 06:32:51;;;;;;;;;;;;;;;26.21;34.14;101093.25;4197300;28;20321;-63
2023/11/21 06:34:55;;;;;;;;;;;;;;;26.21;34.01;101095.97;4197465;28;19927;-63
2023/11/21 06:36:57;;;;;;;;;;;;;;;26.22;34.31;101094.97;4197505;28;19920;-63
2023/11/21 06:38:58;;;;;;;;;;;;;;;26.21;34.03;101101.34;4197298;28;19924;-63
2023/11/21 06:41:04;;;;;;;;;;;;;;;26.21;34.14;101098.66;4197214;28;19967;-63
2023/11/21 06:43:07;;;;;;;;;;;;;;;26.21;33.96;101097.78;4197271;28;19964;-63
2023/11/21 06:45:10;;;;;;;;;;;;;;;26.19;34.26;101097.94;4196979;28;20381;-63
2023/11/21 06:47:12;;;;;;;;;;;;;;;26.18;34.10;101096.25;4197147;28;20298;-63
2023/11/21 06:49:14;;;;;;;;;;;;;;;26.16;34.05;101098.22;4197161;28;19930;-63
2023/11/21 06:51:15;;;;;;;;;;;;;;;26.17;34.32;101094.53;4197000;28;20034;-63
2023/11/21 06:53:17;;;;;;;;;;;;;;;26.18;34.41;101098.94;4197324;28;19967;-63
2023/11/21 06:55:19;;;;;;;;;;;;;;;26.20;34.02;101096.09;4197174;28;19978;-63
2023/11/21 06:57:23;;;;;;;;;;;;;;;26.21;34.15;101104.03;4197115;28;19943;-63
2023/11/21 06:59:24;;;;;;;;;;;;;;;26.23;34.15;101103.88;4196631;28;19920;-63
2023/11/21 07:01:26;;;;;;;;;;;;;;;26.23;33.96;101106.59;4197053;28;20379;-63
2023/11/21 07:03:27;;;;;;;;;;;;;;;26.24;34.14;101111.81;4197172;28;20026;-63
2023/11/21 07:05:29;;;;;;;;;;;;;;;26.22;33.98;101107.56;4196992;28;19924;-63
2023/11/21 07:07:31;;;;;;;;;;;;;;;26.21;34.33;101114.84;4197142;28;20395;-63
2023/11/21 07:09:32;;;;;;;;;;;;;;;26.21;34.26;101124.75;4197012;28;19966;-63
2023/11/21 07:11:35;;;;;;;;;;;;;;;26.21;34.50;101124.75;4196741;28;19921;-63
2023/11/21 07:13:36;;;;;;;;;;;;;;;26.19;34.23;101132.16;4197053;28;20003;-63
2023/11/21 07:15:38;;;;;;;;;;;;;;;26.18;34.57;101131.28;4196686;28;19947;-63
2023/11/21 07:17:44;;;;;;;;;;;;;;;26.19;34.33;101138.38;4195702;28;19946;-63
2023/11/21 07:19:46;;;;;;;;;;;;;;;26.22;34.26;101142.63;4196908;28;19920;-63
2023/11/21 07:21:50;;;;;;;;;;;;;;;26.23;34.17;101147.88;4196797;28;19920;-63
2023/11/21 07:23:52;;;;;;;;;;;;;;;26.23;34.13;101144.34;4196909;28;19927;-62
2023/11/21 07:25:53;;;;;;;;;;;;;;;26.26;34.43;101149.41;4196600;28;20019;-63
2023/11/21 07:27:56;;;;;;;;;;;;;;;26.24;34.11;101151.44;4195505;28;19920;-63
2023/11/21 07:30:06;;;;;;;;;;;;;;;26.24;34.17;101156.81;4196398;28;19920;-63
2023/11/21 07:32:09;;;;;;;;;;;;;;;26.23;34.15;101155.13;4196875;28;20335;-63
2023/11/21 07:34:12;;;;;;;;;;;;;;;26.22;34.45;101167.75;4199233;28;19999;-63
2023/11/21 07:36:18;;;;;;;;;;;;;;;26.19;34.49;101156.41;4199973;28;19966;-63
2023/11/21 07:38:19;;;;;;;;;;;;;;;26.16;34.32;101162.91;4200214;28;19928;-63
2023/11/21 07:40:22;;;;;;;;;;;;;;;26.17;34.23;101163.78;4199865;28;20006;-63
2023/11/21 07:42:26;;;;;;;;;;;;;;;26.18;34.26;101168.19;4199766;28;19921;-62
2023/11/21 07:44:28;;;;;;;;;;;;;;;26.19;34.33;101159.94;4199627;28;19927;-63
2023/11/21 07:46:29;;;;;;;;;;;;;;;26.21;34.31;101173.28;4199890;28;19931;-63
2023/11/21 07:48:32;;;;;;;;;;;;;;;26.21;34.26;101171.44;4199886;28;19927;-63
2023/11/21 07:50:33;;;;;;;;;;;;;;;26.22;34.36;101175.84;4199634;28;20013;-62
2023/11/21 07:52:35;;;;;;;;;;;;;;;26.21;34.18;101176.84;4198792;28;19927;-62
2023/11/21 07:54:41;;;;;;;;;;;;;;;26.19;34.23;101173.44;4200065;28;19927;-61
2023/11/21 07:56:48;;;;;;;;;;;;;;;26.18;34.21;101181.66;4199810;28;19928;-62
2023/11/21 07:58:50;;;;;;;;;;;;;;;26.17;34.41;101177.28;4199346;28;19924;-62
2023/11/21 08:00:54;;;;;;;;;;;;;;;26.14;34.58;101184.66;4199588;28;20380;-61
2023/11/21 08:02:55;;;;;;;;;;;;;;;26.15;34.29;101190.91;4199362;28;20029;-61
2023/11/21 08:04:57;;;;;;;;;;;;;;;26.14;34.54;101187.34;4199432;28;19920;-62
2023/11/21 08:07:03;;;;;;;;;;;;;;;26.14;34.35;101190.03;4199297;28;19928;-62
2023/11/21 08:09:11;;;;;;;;;;;;;;;26.16;34.36;101189.88;4199579;28;19960;-61
2023/11/21 08:11:13;;;;;;;;;;;;;;;26.18;34.43;101193.28;4199614;28;19935;-62
2023/11/21 08:13:17;;;;;;;;;;;;;;;26.18;34.35;101203.25;4199287;28;19924;-62
2023/11/21 08:15:18;;;;;;;;;;;;;;;26.18;34.45;101203.25;4199384;28;19951;-63
2023/11/21 08:17:20;;;;;;;;;;;;;;;26.18;34.49;101201.38;4199609;28;20003;-62
2023/11/21 08:19:23;;;;;;;;;;;;;;;26.17;34.38;101202.38;4199329;28;19924;-61
2023/11/21 08:21:26;;;;;;;;;;;;;;;26.16;34.36;101206.06;4199247;28;19928;-61
2023/11/21 08:23:29;;;;;;;;;;;;;;;26.15;34.41;101201.69;4199258;28;19981;-61
2023/11/21 08:25:31;;;;;;;;;;;;;;;26.14;34.36;101203.50;4199468;28;20387;-62
2023/11/21 08:27:34;;;;;;;;;;;;;;;26.14;34.43;101211.59;4199105;28;20284;-61
2023/11/21 08:29:36;;;;;;;;;;;;;;;26.14;34.42;101208.91;4199227;28;19920;-62
2023/11/21 08:31:38;;;;;;;;;;;;;;;26.17;34.53;101213.16;4199158;28;20015;-62
2023/11/21 08:33:39;;;;;;;;;;;;;;;26.17;34.44;101213.16;4199208;28;19930;-62
2023/11/21 08:35:41;;;;;;;;;;;;;;;26.19;34.55;101213.03;4199362;28;19921;-61
2023/11/21 08:37:42;;;;;;;;;;;;;;;26.18;34.59;101209.47;4199013;28;19921;-62
2023/11/21 08:39:44;;;;;;;;;;;;;;;26.19;34.35;101210.34;4199202;28;19920;-62
2023/11/21 08:41:46;;;;;;;;;;;;;;;26.19;34.31;101210.34;4197372;28;20318;-62
2023/11/21 08:43:48;;;;;;;;;;;;;;;26.19;34.31;101219.25;4199079;28;20445;-63
2023/11/21 08:45:50;;;;;;;;;;;;;;;26.17;34.63;101223.94;4197954;28;19963;-62
2023/11/21 08:47:52;;;;;;;;;;;;;;;26.18;34.38;101228.34;4199353;28;19927;-63
2023/11/21 08:49:53;;;;;;;;;;;;;;;26.18;34.46;101233.72;4197652;28;20407;-62
2023/11/21 08:51:55;;;;;;;;;;;;;;;26.18;34.49;101241.81;4198622;28;19927;-62
2023/11/21 08:53:59;;;;;;;;;;;;;;;26.19;34.74;101246.22;4198917;28;19921;-63
2023/11/21 08:56:01;;;;;;;;;;;;;;;26.21;34.36;101246.94;4198501;28;20011;-62
2023/11/21 08:58:05;;;;;;;;;;;;;;;26.22;34.42;101247.78;4198905;28;19927;-62
2023/11/21 09:00:11;;;;;;;;;;;;;;;26.23;34.42;101257.56;4198887;28;19964;-62
2023/11/21 09:02:13;;;;;;;;;;;;;;;26.23;34.39;101257.56;4198641;28;19928;-62
2023/11/21 09:04:14;;;;;;;;;;;;;;;26.23;34.41;101265.66;4198692;28;19920;-63
2023/11/21 09:06:16;;;;;;;;;;;;;;;26.22;34.73;101262.13;4197814;28;19920;-62
2023/11/21 09:08:17;;;;;;;;;;;;;;;26.21;34.43;101264.94;4198784;28;19935;-62
2023/11/21 09:10:20;;;;;;;;;;;;;;;26.19;34.61;101258.88;4198347;28;20015;-63
2023/11/21 09:12:22;;;;;;;;;;;;;;;26.18;34.57;101258.00;4198571;28;19974;-61
2023/11/21 09:14:23;;;;;;;;;;;;;;;26.17;34.44;101256.28;4198357;28;20379;-62
2023/11/21 09:16:25;;;;;;;;;;;;;;;26.17;34.51;101250.06;4198533;28;20011;-61
2023/11/21 09:18:26;;;;;;;;;;;;;;;26.17;34.47;101248.19;4198560;28;20030;-60
2023/11/21 09:20:28;;;;;;;;;;;;;;;26.19;34.59;101259.69;4198539;28;19989;-61
2023/11/21 09:22:31;;;;;;;;;;;;;;;26.22;34.66;101266.66;4198532;28;19943;-61
2023/11/21 09:24:33;;;;;;;;;;;;;;;26.23;34.45;101262.97;4198149;28;19920;-62
2023/11/21 09:26:34;;;;;;;;;;;;;;;26.23;34.42;101260.25;4198214;28;20015;-62
2023/11/21 09:28:38;;;;;;;;;;;;;;;26.24;34.64;101265.50;4198330;28;19920;-62
2023/11/21 09:30:39;;;;;;;;;;;;;;;26.25;34.39;101266.38;4198292;28;19924;-61
2023/11/21 09:32:45;;;;;;;;;;;;;;;26.24;34.66;101270.91;4198527;28;19920;-61
2023/11/21 09:34:47;;;;;;;;;;;;;;;26.23;34.37;101271.06;4198496;28;19926;-61
2023/11/21 09:36:49;;;;;;;;;;;;;;;26.21;34.45;101270.34;4198361;28;19920;-63
2023/11/21 09:38:51;;;;;;;;;;;;;;;26.19;34.93;101269.66;4197628;28;19920;-61
2023/11/21 09:40:54;;;;;;;;;;;;;;;26.20;34.87;101274.88;4197901;28;19959;-62
2023/11/21 09:42:59;;;;;;;;;;;;;;;26.21;34.56;101281.13;4197754;28;19924;-64
2023/11/21 09:45:04;;;;;;;;;;;;;;;26.23;34.61;101285.38;4198421;28;19920;-61
2023/11/21 09:47:10;;;;;;;;;;;;;;;26.24;34.70;101276.28;4197954;28;20019;-62
2023/11/21 09:49:13;;;;;;;;;;;;;;;26.26;34.47;101279.69;4198023;28;19920;-61
2023/11/21 09:51:15;;;;;;;;;;;;;;;26.28;34.43;101279.56;4197767;28;19973;-61
2023/11/21 09:53:18;;;;;;;;;;;;;;;26.26;34.48;101286.91;4197923;28;20415;-61
2023/11/21 09:55:21;;;;;;;;;;;;;;;26.26;34.67;101290.50;4198336;28;19963;-61
2023/11/21 09:57:23;;;;;;;;;;;;;;;26.26;34.56;101300.41;4197426;28;20012;-62
2023/11/21 09:59:26;;;;;;;;;;;;;;;26.26;34.54;101297.72;4197563;28;20430;-62
2023/11/21 10:01:28;;;;;;;;;;;;;;;26.24;34.51;101300.56;4197571;28;20402;-62
2023/11/21 10:03:30;;;;;;;;;;;;;;;26.24;34.57;101307.81;4197359;28;20018;-62
2023/11/21 10:05:34;;;;;;;;;;;;;;;26.24;34.46;101311.34;4197647;28;19920;-62
2023/11/21 10:07:36;;;;;;;;;;;;;;;26.25;34.79;101310.34;4197329;28;19956;-62
2023/11/21 10:09:38;;;;;;;;;;;;;;;26.30;34.48;101316.16;4197044;28;19920;-62
2023/11/21 10:11:43;;;;;;;;;;;;;;;26.33;34.43;101317.72;4197459;28;19920;-62
2023/11/21 10:13:46;;;;;;;;;;;;;;;26.34;34.47;101323.97;4197568;28;19920;-62
2023/11/21 10:15:51;;;;;;;;;;;;;;;26.31;34.53;101325.97;4197538;28;19989;-62
2023/11/21 10:17:54;;;;;;;;;;;;;;;26.31;34.58;101331.34;4197543;28;19920;-62
2023/11/21 10:19:57;;;;;;;;;;;;;;;26.30;34.89;101337.72;4197492;28;19926;-62
2023/11/21 10:22:01;;;;;;;;;;;;;;;26.29;34.59;101337.88;4197445;28;19977;-62
2023/11/21 10:24:03;;;;;;;;;;;;;;;26.27;34.65;101345.25;4196874;28;20455;-62
2023/11/21 10:26:06;;;;;;;;;;;;;;;26.24;34.61;101345.56;4197508;28;20329;-62
2023/11/21 10:28:20;;;;;;;;;;;;;;;26.22;34.87;101352.94;4197269;28;19967;-61